Time;durP1;ratioP1;P1;durP2;ratioP2;P2;SDS_P1;SDS_P2;PMS_P1;PMS_P2;Temp;Humidity;BMP_temperature;BMP_pressure;BME280_temperature;BME280_humidity;BME280_pressure;Samples;Min_cycle;Max_cycle;Signal;HPM_P1;HPM_P2
2021/12/20 00:01:50;;;;;;;3.83;2.33;;;;;;;-1.59;100.00;97077.94;5047088;28;20055;-59
2021/12/20 00:04:35;;;;;;;4.05;2.33;;;;;;;-1.64;100.00;97074.56;5047568;28;20047;-60
2021/12/20 00:07:20;;;;;;;4.18;2.33;;;;;;;-1.72;100.00;97079.91;5044999;28;20554;-66
2021/12/20 00:10:06;;;;;;;5.50;2.65;;;;;;;-1.72;100.00;97079.91;5048749;28;20520;-56
2021/12/20 00:12:51;;;;;;;5.22;2.58;;;;;;;-1.67;100.00;97088.47;5028258;28;20103;-58
2021/12/20 00:15:35;;;;;;;4.43;2.38;;;;;;;-1.63;100.00;97071.94;5045290;28;20060;-56
2021/12/20 00:18:20;;;;;;;6.03;2.70;;;;;;;-1.49;100.00;97097.72;5047269;28;20059;-53
2021/12/20 00:21:04;;;;;;;3.78;2.38;;;;;;;-1.45;100.00;97101.97;5031947;28;20091;-52
2021/12/20 00:23:49;;;;;;;3.60;1.95;;;;;;;-1.46;100.00;97098.50;5046593;28;20404;-58
2021/12/20 00:26:34;;;;;;;4.28;2.15;;;;;;;-1.33;100.00;97105.25;5027511;28;20047;-65
2021/12/20 00:29:19;;;;;;;2.92;1.90;;;;;;;-1.44;100.00;97101.94;5048528;28;20047;-62
2021/12/20 00:32:04;;;;;;;;;;;;;;;-1.48;100.00;97102.88;5045308;28;20427;-60
2021/12/20 00:34:48;;;;;;;4.00;1.85;;;;;;;-1.63;100.00;97112.63;5033507;28;20433;-63
2021/12/20 00:40:37;;;;;;;2.88;1.65;;;;;;;-1.82;100.00;97121.59;5044788;28;20052;-57
2021/12/20 00:43:22;;;;;;;2.60;1.70;;;;;;;-1.75;100.00;97121.47;5031417;28;20134;-60
2021/12/20 00:46:06;;;;;;;3.05;1.83;;;;;;;-1.58;100.00;97132.47;5058961;28;20068;-60
2021/12/20 00:48:51;;;;;;;3.10;1.60;;;;;;;-1.67;100.00;97132.59;5045461;28;20071;-57
2021/12/20 00:51:35;;;;;;;5.18;1.70;;;;;;;-1.77;100.00;97120.66;5047614;28;20451;-61
2021/12/20 00:54:20;;;;;;;3.58;2.00;;;;;;;-1.69;100.00;97126.59;5047069;28;20492;-66
2021/12/20 00:57:04;;;;;;;5.07;2.35;;;;;;;-1.63;100.00;97133.41;5045329;28;20056;-61
2021/12/20 00:59:49;;;;;;;2.50;1.60;;;;;;;-1.56;100.00;97142.84;5043195;28;20677;-65
2021/12/20 01:02:34;;;;;;;3.38;1.77;;;;;;;-1.67;100.00;97144.72;5047330;28;20470;-57
2021/12/20 01:05:21;;;;;;;3.83;1.77;;;;;;;-1.62;100.00;97146.38;5032487;28;20052;-63
2021/12/20 01:08:08;;;;;;;4.85;1.90;;;;;;;-1.65;100.00;97155.97;5044719;28;20516;-56
2021/12/20 01:10:53;;;;;;;2.90;1.80;;;;;;;-1.53;100.00;97155.78;5046149;28;20420;-62
2021/12/20 01:13:40;;;;;;;2.67;1.52;;;;;;;-1.51;100.00;97161.78;5029800;28;20060;-64
2021/12/20 01:16:31;;;;;;;4.40;1.70;;;;;;;-1.24;100.00;97154.47;5054996;28;20202;-61
2021/12/20 01:19:18;;;;;;;3.47;1.40;;;;;;;-1.52;100.00;97170.47;5030765;28;20479;-61
2021/12/20 01:22:05;;;;;;;3.28;1.60;;;;;;;-1.60;100.00;97182.72;5047250;28;20052;-63
2021/12/20 01:24:49;;;;;;;5.13;1.40;;;;;;;-1.73;100.00;97184.66;5043449;28;20421;-62
2021/12/20 01:27:33;;;;;;;5.22;1.90;;;;;;;-1.58;100.00;97181.81;5042608;28;20079;-63
2021/12/20 01:30:24;;;;;;;2.53;1.50;;;;;;;-1.71;100.00;97189.78;5030403;28;20111;-59
2021/12/20 01:33:11;;;;;;;2.80;1.40;;;;;;;-1.84;100.00;97190.84;5041411;28;20335;-60
2021/12/20 01:35:56;;;;;;;3.30;1.50;;;;;;;-1.80;100.00;97179.53;5045408;28;20048;-59
2021/12/20 01:38:41;;;;;;;2.55;1.42;;;;;;;-1.70;100.00;97186.34;5043197;28;20078;-64
2021/12/20 01:41:27;;;;;;;;;;;;;;;-1.71;100.00;97193.25;5043488;28;20194;-61
2021/12/20 01:44:13;;;;;;;2.90;1.35;;;;;;;-1.70;100.00;97187.19;5045569;28;20423;-62
2021/12/20 01:47:00;;;;;;;2.55;1.40;;;;;;;-1.93;100.00;97199.59;5044199;28;20075;-63
2021/12/20 01:50:01;;;;;;;3.47;1.02;;;;;;;-2.00;100.00;97207.50;5043934;28;20051;-62
2021/12/20 01:52:47;;;;;;;2.80;1.33;;;;;;;-2.16;100.00;97208.53;5044047;28;20167;-61
2021/12/20 01:55:32;;;;;;;1.35;1.00;;;;;;;-2.25;100.00;97208.66;5043464;28;20052;-59
2021/12/20 01:58:17;;;;;;;3.42;1.45;;;;;;;-2.15;100.00;97224.09;5030852;28;20114;-58
2021/12/20 02:03:57;;;;;;;2.53;1.23;;;;;;;-2.01;100.00;97231.72;5043935;28;20064;-60
2021/12/20 02:06:47;;;;;;;2.78;1.40;;;;;;;-2.09;100.00;97229.22;5031576;28;20214;-63
2021/12/20 02:09:31;;;;;;;1.73;1.10;;;;;;;-2.14;100.00;97243.13;5029993;28;20106;-60
2021/12/20 02:12:16;;;;;;;3.03;1.10;;;;;;;-2.26;100.00;97243.28;5044571;28;20059;-61
2021/12/20 02:15:02;;;;;;;3.25;1.17;;;;;;;-2.20;100.00;97238.88;5042501;28;20107;-60
2021/12/20 02:17:47;;;;;;;1.73;1.00;;;;;;;-2.18;100.00;97249.25;5041913;28;20139;-64
2021/12/20 02:20:33;;;;;;;2.28;1.10;;;;;;;-2.21;100.00;97244.06;5043101;28;20127;-61
2021/12/20 02:23:18;;;;;;;2.60;1.48;;;;;;;-2.28;100.00;97255.38;5038565;28;20519;-58
2021/12/20 02:26:04;;;;;;;;;;;;;;;-2.18;100.00;97267.41;5042213;28;20075;-61
2021/12/20 02:28:52;;;;;;;2.53;1.42;;;;;;;-2.27;100.00;97273.53;5043667;28;20011;-62
2021/12/20 02:37:43;;;;;;;2.70;1.55;;;;;;;-1.98;100.00;97278.44;5046015;28;20098;-57
2021/12/20 02:40:27;;;;;;;1.73;1.00;;;;;;;-2.13;100.00;97282.03;5042057;28;20064;-60
2021/12/20 02:43:16;;;;;;;2.53;1.17;;;;;;;-2.35;100.00;97285.72;5057827;28;20091;-60
2021/12/20 02:46:04;;;;;;;3.33;1.45;;;;;;;-2.35;100.00;97280.53;5057343;28;20610;-59
2021/12/20 02:48:50;;;;;;;3.28;1.55;;;;;;;-2.55;100.00;97277.25;5039487;28;20040;-64
2021/12/20 02:51:38;;;;;;;2.67;1.30;;;;;;;-2.42;100.00;97286.66;5040503;28;20699;-61
2021/12/20 02:54:23;;;;;;;3.58;1.17;;;;;;;-2.48;100.00;97273.75;5042367;28;20144;-57
2021/12/20 02:57:07;;;;;;;2.47;1.30;;;;;;;-2.41;100.00;97303.91;5047331;28;20066;-59
2021/12/20 02:59:52;;;;;;;3.00;1.35;;;;;;;-2.32;100.00;97314.22;5045796;28;20075;-60
2021/12/20 03:02:38;;;;;;;2.72;1.23;;;;;;;-2.32;100.00;97315.97;5045527;28;20585;-59
2021/12/20 03:05:22;;;;;;;2.40;1.48;;;;;;;-2.43;100.00;97303.09;5039570;28;20566;-58
2021/12/20 03:08:08;;;;;;;3.88;1.40;;;;;;;-2.39;100.00;97319.47;5042794;28;20183;-63
2021/12/20 03:10:55;;;;;;;2.72;1.30;;;;;;;-2.33;100.00;97322.88;5046606;28;20136;-61
2021/12/20 03:13:41;;;;;;;3.08;1.23;;;;;;;-2.52;100.00;97308.38;5058186;28;20098;-58
2021/12/20 03:16:26;;;;;;;1.73;0.85;;;;;;;-2.50;100.00;97327.34;5031441;28;20052;-57
2021/12/20 03:19:11;;;;;;;1.98;1.05;;;;;;;-2.57;100.00;97330.03;5044507;28;20051;-59
2021/12/20 03:21:56;;;;;;;2.30;0.90;;;;;;;-2.54;100.00;97338.63;5011170;28;20103;-63
2021/12/20 03:24:41;;;;;;;2.13;1.10;;;;;;;-2.41;100.00;97337.63;5026795;28;20067;-59
2021/12/20 03:27:25;;;;;;;2.65;1.20;;;;;;;-2.52;100.00;97333.44;5027255;28;20083;-59
2021/12/20 03:30:13;;;;;;;3.65;0.90;;;;;;;-2.37;100.00;97338.50;5045400;28;20200;-64
2021/12/20 03:32:57;;;;;;;2.28;1.17;;;;;;;-2.45;100.00;97346.31;5023687;28;20055;-65
2021/12/20 03:35:42;;;;;;;1.77;1.08;;;;;;;-2.35;100.00;97347.97;5025785;28;20047;-64
2021/12/20 03:38:26;;;;;;;4.20;1.20;;;;;;;-2.42;100.00;97346.31;5040395;28;20056;-60
2021/12/20 03:41:10;;;;;;;2.90;1.20;;;;;;;-2.68;100.00;97348.25;5031361;28;20052;-63
2021/12/20 03:43:56;;;;;;;4.63;1.30;;;;;;;-2.55;100.00;97349.00;5045531;28;20098;-70
2021/12/20 03:46:40;;;;;;;2.50;1.30;;;;;;;-2.65;100.00;97347.38;5044009;28;20051;-62
2021/12/20 03:49:25;;;;;;;2.72;1.38;;;;;;;-2.51;100.00;97359.34;5038088;28;20078;-60
2021/12/20 03:52:10;;;;;;;5.03;1.40;;;;;;;-2.52;100.00;97364.53;5072243;28;20107;-58
2021/12/20 03:54:55;;;;;;;2.08;0.90;;;;;;;-2.51;100.00;97372.31;5046389;28;20148;-57
2021/12/20 03:57:40;;;;;;;1.55;1.00;;;;;;;-2.61;100.00;97375.84;5069006;28;20059;-58
2021/12/20 04:00:25;;;;;;;4.00;1.23;;;;;;;-2.65;100.00;97374.13;5026505;28;20047;-67
2021/12/20 04:03:13;;;;;;;3.80;1.30;;;;;;;-2.69;100.00;97369.84;5043983;28;20064;-62
2021/12/20 04:05:58;;;;;;;3.33;1.70;;;;;;;-2.64;100.00;97387.97;5034631;28;20052;-55
2021/12/20 04:08:43;;;;;;;4.68;1.50;;;;;;;-2.82;100.00;97398.44;5032083;28;20067;-68
2021/12/20 04:11:27;;;;;;;3.53;1.83;;;;;;;-2.84;100.00;97397.63;5045784;28;20082;-51
2021/12/20 04:14:11;;;;;;;3.45;1.88;;;;;;;-2.64;100.00;97400.94;5046151;28;20170;-65
2021/12/20 04:16:56;;;;;;;4.15;2.00;;;;;;;-2.78;100.00;97408.81;5019734;28;20191;-59
2021/12/20 04:19:40;;;;;;;4.68;2.03;;;;;;;-2.75;100.00;97415.69;5042666;28;20417;-68
2021/12/20 04:22:26;;;;;;;4.68;1.80;;;;;;;-2.65;100.00;97415.63;5035341;28;20060;-63
2021/12/20 04:25:10;;;;;;;3.17;1.38;;;;;;;-2.83;100.00;97417.47;5044833;28;20064;-56
2021/12/20 04:27:55;;;;;;;;;;;;;;;-2.87;100.00;97428.72;5036398;28;20048;-59
2021/12/20 04:30:40;;;;;;;3.75;1.70;;;;;;;-3.06;100.00;97430.56;5026156;28;19928;-60
2021/12/20 04:33:25;;;;;;;;;;;;;;;-3.06;100.00;97427.09;5058079;28;20044;-64
2021/12/20 04:36:09;;;;;;;4.80;1.60;;;;;;;-3.02;100.00;97441.75;5029182;28;19973;-64
2021/12/20 04:38:53;;;;;;;1.95;1.20;;;;;;;-2.94;100.00;97437.38;5047631;28;20127;-58
2021/12/20 04:41:39;;;;;;;7.88;1.83;;;;;;;-2.89;100.00;97464.19;5049655;28;20067;-64
2021/12/20 04:44:23;;;;;;;4.30;1.75;;;;;;;-2.97;100.00;97465.94;5047929;28;20051;-69
2021/12/20 04:47:07;;;;;;;3.05;1.52;;;;;;;-2.99;100.00;97454.69;5030257;28;20079;-65
2021/12/20 04:49:52;;;;;;;3.78;1.85;;;;;;;-3.08;100.00;97452.16;5042653;28;20048;-63
2021/12/20 04:52:37;;;;;;;5.47;1.67;;;;;;;-2.85;100.00;97458.94;5020634;28;20191;-65
2021/12/20 04:55:23;;;;;;;2.35;1.55;;;;;;;-2.89;100.00;97477.97;5050038;28;20531;-57
2021/12/20 04:58:08;;;;;;;3.65;1.40;;;;;;;-2.73;100.00;97478.78;5047649;28;20063;-60
2021/12/20 05:00:52;;;;;;;5.20;1.55;;;;;;;-2.68;100.00;97482.22;5048739;28;20079;-55
2021/12/20 05:03:37;;;;;;;3.53;1.40;;;;;;;-2.83;100.00;97488.34;5046017;28;20059;-68
2021/12/20 05:06:21;;;;;;;3.33;1.70;;;;;;;-2.92;100.00;97483.19;5047052;28;20051;-56
2021/12/20 05:09:06;;;;;;;2.97;1.60;;;;;;;-2.95;100.00;97490.09;5059721;28;20064;-56
2021/12/20 05:11:58;;;;;;;2.10;1.33;;;;;;;-2.92;100.00;97498.75;5048043;28;20107;-59
2021/12/20 05:14:45;;;;;;;4.30;1.67;;;;;;;-2.77;100.00;97506.44;5046681;28;20060;-59
2021/12/20 05:17:30;;;;;;;3.17;1.40;;;;;;;-2.85;100.00;97497.84;5012451;28;20064;-69
2021/12/20 05:20:15;;;;;;;3.03;1.63;;;;;;;-2.96;100.00;97512.59;5045696;28;20055;-62
2021/12/20 05:23:01;;;;;;;3.72;1.55;;;;;;;-3.11;100.00;97523.00;5026402;28;20091;-62
2021/12/20 05:25:46;;;;;;;5.45;1.48;;;;;;;-3.11;100.00;97528.19;5018137;28;20127;-58
2021/12/20 05:28:31;;;;;;;3.85;1.70;;;;;;;-3.10;100.00;97523.84;5047632;28;20353;-61
2021/12/20 05:31:15;;;;;;;2.83;1.58;;;;;;;-3.15;100.00;97520.41;5047424;28;20577;-61
2021/12/20 05:34:01;;;;;;;3.85;1.55;;;;;;;-3.03;100.00;97534.19;5017610;28;20158;-60
2021/12/20 05:36:45;;;;;;;3.80;1.73;;;;;;;-2.81;100.00;97537.59;5045327;28;20136;-64
2021/12/20 05:39:30;;;;;;;2.97;1.88;;;;;;;-2.85;100.00;97538.47;5067270;28;20462;-54
2021/12/20 05:42:15;;;;;;;3.35;1.80;;;;;;;-2.91;100.00;97552.31;5046293;28;20523;-57
2021/12/20 05:45:01;;;;;;;3.95;1.85;;;;;;;-2.92;100.00;97552.31;5036624;28;20136;-55
2021/12/20 05:47:46;;;;;;;3.97;2.03;;;;;;;-2.91;100.00;97562.66;5042658;28;20044;-57
2021/12/20 05:50:31;;;;;;;3.83;1.85;;;;;;;-3.01;100.00;97562.72;5044549;28;20047;-59
2021/12/20 05:53:16;;;;;;;4.65;1.98;;;;;;;-2.82;100.00;97570.41;5047212;28;20047;-57
2021/12/20 05:56:00;;;;;;;3.67;1.70;;;;;;;-2.84;100.00;97574.75;5045043;28;20060;-65
2021/12/20 05:58:45;;;;;;;3.97;1.85;;;;;;;-2.93;100.00;97585.13;5045814;28;20071;-64
2021/12/20 06:01:30;;;;;;;3.67;1.83;;;;;;;-2.85;100.00;97567.81;5042419;28;20052;-58
2021/12/20 06:04:14;;;;;;;5.55;2.28;;;;;;;-2.95;100.00;97584.28;5047199;28;20110;-64
2021/12/20 06:06:59;;;;;;;5.03;2.17;;;;;;;-3.02;100.00;97592.06;5046720;28;20052;-58
2021/12/20 06:09:43;;;;;;;4.82;2.33;;;;;;;-2.93;100.00;97590.31;5032579;28;20097;-58
2021/12/20 06:12:29;;;;;;;4.80;2.60;;;;;;;-3.07;100.00;97591.22;5025892;28;20100;-60
2021/12/20 06:15:14;;;;;;;6.47;2.20;;;;;;;-3.08;100.00;97603.31;5034717;28;20048;-65
2021/12/20 06:17:59;;;;;;;4.57;2.20;;;;;;;-2.92;100.00;97602.44;5045878;28;20083;-59
2021/12/20 06:20:44;;;;;;;;;;;;;;;-2.86;100.00;97623.13;5046072;28;20189;-58
2021/12/20 06:23:29;;;;;;;3.97;1.88;;;;;;;-3.05;100.00;97623.19;5034285;28;20304;-59
2021/12/20 06:26:13;;;;;;;5.25;2.88;;;;;;;-3.04;100.00;97623.19;5027490;28;20143;-58
2021/12/20 06:28:58;;;;;;;5.95;2.53;;;;;;;-3.02;100.00;97634.38;5047815;28;20051;-56
2021/12/20 06:31:43;;;;;;;5.32;2.55;;;;;;;-3.23;100.00;97629.25;5046213;28;20055;-58
2021/12/20 06:34:28;;;;;;;5.55;2.63;;;;;;;-3.12;100.00;97653.44;5014412;28;20068;-62
2021/12/20 06:37:14;;;;;;;6.88;3.13;;;;;;;-2.99;100.00;97654.25;5046494;28;20551;-58
2021/12/20 06:40:00;;;;;;;10.52;3.08;;;;;;;-3.01;100.00;97658.59;5042614;28;20063;-59
2021/12/20 06:42:44;;;;;;;5.20;2.88;;;;;;;-2.76;100.00;97666.34;5046005;28;20468;-57
2021/12/20 06:45:29;;;;;;;5.50;3.20;;;;;;;-2.83;100.00;97667.19;5043635;28;20063;-54
2021/12/20 06:48:14;;;;;;;6.50;3.17;;;;;;;-2.78;100.00;97672.34;5045219;28;20146;-56
2021/12/20 06:50:59;;;;;;;8.13;3.38;;;;;;;-2.85;100.00;97666.31;5040284;28;20047;-65
2021/12/20 06:53:43;;;;;;;4.57;2.50;;;;;;;-2.96;100.00;97659.44;5055450;28;20060;-67
2021/12/20 06:56:28;;;;;;;3.92;2.30;;;;;;;-3.18;100.00;97666.38;5039584;28;20135;-55
2021/12/20 06:59:12;;;;;;;8.07;2.83;;;;;;;-3.04;100.00;97677.59;5041286;28;20140;-52
2021/12/20 07:01:57;;;;;;;6.03;3.03;;;;;;;-2.72;100.00;97688.78;5043062;28;20103;-51
2021/12/20 07:04:41;;;;;;;6.85;3.50;;;;;;;-2.98;100.00;97703.50;5023781;28;20056;-58
2021/12/20 07:07:26;;;;;;;6.97;3.20;;;;;;;-2.86;100.00;97687.06;5044176;28;20043;-60
2021/12/20 07:10:11;;;;;;;5.35;3.28;;;;;;;-2.87;100.00;97704.38;5025091;28;20052;-55
2021/12/20 07:12:56;;;;;;;6.70;3.00;;;;;;;-3.04;100.00;97705.22;5043072;28;20048;-66
2021/12/20 07:15:41;;;;;;;;;;;;;;;-3.01;100.00;97721.63;5044044;28;20532;-57
2021/12/20 07:18:25;;;;;;;7.55;4.18;;;;;;;-2.99;100.00;97722.50;5039434;28;19978;-67
2021/12/20 07:21:10;;;;;;;7.65;3.88;;;;;;;-3.17;100.00;97737.19;5042105;28;20126;-59
2021/12/20 07:23:54;;;;;;;7.78;3.80;;;;;;;-3.14;100.00;97739.75;5042551;28;20095;-50
2021/12/20 07:26:41;;;;;;;6.88;3.42;;;;;;;-3.17;100.00;97743.22;5043316;28;20416;-57
2021/12/20 07:29:26;;;;;;;8.20;3.65;;;;;;;-3.07;100.00;97738.91;5056960;28;20079;-63
2021/12/20 07:32:13;;;;;;;8.55;3.97;;;;;;;-3.00;100.00;97751.91;5045217;28;20125;-63
2021/12/20 07:34:59;;;;;;;6.38;2.80;;;;;;;-2.90;100.00;97750.13;5053966;28;20136;-57
2021/12/20 07:37:44;;;;;;;6.15;3.50;;;;;;;-2.81;100.00;97737.19;5028447;28;20409;-60
2021/12/20 07:40:29;;;;;;;;;;;;;;;-2.63;100.00;97758.78;5039530;28;20416;-60
2021/12/20 07:43:15;;;;;;;7.10;4.00;;;;;;;-2.77;100.00;97772.63;5045963;28;19931;-57
2021/12/20 07:46:01;;;;;;;7.05;3.47;;;;;;;-3.00;100.00;97767.44;5044469;28;20056;-61
2021/12/20 07:48:48;;;;;;;6.28;3.80;;;;;;;-3.53;100.00;97756.13;5044307;28;20087;-62
2021/12/20 07:51:33;;;;;;;8.32;3.83;;;;;;;-3.38;100.00;97778.59;5042659;28;20087;-62
2021/12/20 07:54:19;;;;;;;6.68;3.63;;;;;;;-3.09;100.00;97771.75;5045289;28;20140;-61
2021/12/20 07:57:05;;;;;;;7.45;3.95;;;;;;;-2.87;100.00;97778.66;5041125;28;20056;-60
2021/12/20 07:59:50;;;;;;;10.00;3.83;;;;;;;-2.79;100.00;97782.13;5038312;28;20075;-64
2021/12/20 08:02:35;;;;;;;;;;;;;;;-2.80;100.00;97785.59;5033600;28;20052;-58
2021/12/20 08:05:20;;;;;;;10.55;3.70;;;;;;;-2.94;100.00;97792.47;5042348;28;19923;-60
2021/12/20 08:08:05;;;;;;;;;;;;;;;-2.77;100.00;97789.03;5042762;28;20044;-58
2021/12/20 08:10:50;;;;;;;;;;;;;;;-2.84;100.00;97786.44;5042391;28;20467;-60
2021/12/20 08:13:44;;;;;;;7.78;3.55;;;;;;;-3.22;100.00;97799.34;5044455;28;19928;-64
2021/12/20 08:16:29;;;;;;;14.05;4.13;;;;;;;-2.98;100.00;97804.56;5046423;28;20079;-66
2021/12/20 08:19:14;;;;;;;7.32;3.75;;;;;;;-2.94;100.00;97795.06;5045648;28;20091;-68
2021/12/20 08:21:58;;;;;;;8.45;3.70;;;;;;;-2.99;100.00;97808.03;5045195;28;20083;-67
2021/12/20 08:24:43;;;;;;;7.13;3.92;;;;;;;-2.92;100.00;97819.28;5057903;28;20056;-61
2021/12/20 08:27:28;;;;;;;7.88;4.43;;;;;;;-2.88;100.00;97816.72;5059628;28;20051;-58
2021/12/20 08:30:14;;;;;;;8.65;4.00;;;;;;;-2.58;100.00;97823.59;5043017;28;20684;-65
2021/12/20 08:32:58;;;;;;;7.32;3.75;;;;;;;-2.65;100.00;97827.09;5047022;28;20111;-73
2021/12/20 08:35:43;;;;;;;6.60;3.20;;;;;;;-2.71;100.00;97834.84;5046491;28;20060;-63
2021/12/20 08:38:27;;;;;;;5.95;3.50;;;;;;;-2.76;100.00;97839.16;5044828;28;20051;-61
2021/12/20 08:41:13;;;;;;;7.60;3.85;;;;;;;-2.65;100.00;97840.91;5003091;28;20071;-61
2021/12/20 08:43:58;;;;;;;6.97;3.70;;;;;;;-2.85;100.00;97837.41;5045075;28;20055;-70
2021/12/20 08:46:43;;;;;;;7.85;3.60;;;;;;;-2.96;100.00;97833.09;5046225;28;20413;-65
2021/12/20 08:49:28;;;;;;;7.85;3.45;;;;;;;-3.16;100.00;97845.16;5043101;28;20305;-57
2021/12/20 08:52:13;;;;;;;7.68;3.53;;;;;;;-3.20;100.00;97849.47;5044473;28;20099;-66
2021/12/20 08:54:58;;;;;;;7.80;4.35;;;;;;;-3.07;100.00;97852.94;5030522;28;20056;-61
2021/12/20 08:57:44;;;;;;;5.65;3.13;;;;;;;-3.09;100.00;97849.50;5003582;28;20060;-56
2021/12/20 09:00:32;;;;;;;7.65;3.70;;;;;;;-2.98;100.00;97856.41;5043960;28;20127;-65
2021/12/20 09:03:16;;;;;;;7.55;3.80;;;;;;;-2.50;100.00;97853.88;5043665;28;20123;-61
2021/12/20 09:06:02;;;;;;;8.20;3.40;;;;;;;-2.60;100.00;97864.25;5032162;28;20594;-63
2021/12/20 09:08:47;;;;;;;5.43;3.15;;;;;;;-2.78;100.00;97869.41;5045354;28;20122;-64
2021/12/20 09:11:31;;;;;;;7.78;3.70;;;;;;;-2.65;100.00;97881.53;5031482;28;20091;-62
2021/12/20 09:14:16;;;;;;;7.40;3.90;;;;;;;-2.70;100.00;97880.66;5045862;28;20075;-63
2021/12/20 09:17:03;;;;;;;6.20;3.58;;;;;;;-2.55;100.00;97886.75;5030872;28;20067;-75
2021/12/20 09:19:47;;;;;;;6.00;3.00;;;;;;;-2.31;100.00;97881.56;5060637;28;20126;-62
2021/12/20 09:22:39;;;;;;;7.00;3.13;;;;;;;-2.46;100.00;97891.91;5044620;28;20179;-62
2021/12/20 09:25:28;;;;;;;6.07;3.38;;;;;;;-2.29;100.00;97895.38;5046421;28;20562;-59
2021/12/20 09:28:15;;;;;;;6.93;3.55;;;;;;;-2.12;100.00;97906.66;5032624;28;20148;-62
2021/12/20 09:31:02;;;;;;;4.93;3.03;;;;;;;-2.03;100.00;97900.56;5059442;28;20052;-68
2021/12/20 09:33:47;;;;;;;7.38;3.30;;;;;;;-2.02;100.00;97918.75;5045815;28;20068;-62
2021/12/20 09:36:33;;;;;;;5.35;2.90;;;;;;;-2.03;100.00;97916.13;5045578;28;20048;-72
2021/12/20 09:39:20;;;;;;;5.18;2.97;;;;;;;-1.81;100.00;97921.34;5047675;28;20550;-60
2021/12/20 09:42:06;;;;;;;4.95;2.58;;;;;;;-2.01;100.00;97941.22;5032515;28;20221;-67
2021/12/20 09:44:54;;;;;;;6.10;3.10;;;;;;;-1.79;100.00;97926.50;5028652;28;20052;-70
2021/12/20 09:47:39;;;;;;;7.95;3.38;;;;;;;-1.37;100.00;97923.81;5045869;28;20099;-64
2021/12/20 09:50:25;;;;;;;5.80;3.22;;;;;;;-1.26;100.00;97930.72;5028838;28;20524;-63
2021/12/20 09:53:09;;;;;;;7.28;3.30;;;;;;;-0.74;100.00;97936.56;5044471;28;20056;-57
2021/12/20 09:55:55;;;;;;;4.80;2.65;;;;;;;-1.19;100.00;97922.03;5044675;28;20059;-69
2021/12/20 09:58:43;;;;;;;4.68;2.80;;;;;;;-1.35;100.00;97935.94;5055749;28;20063;-51
2021/12/20 10:01:29;;;;;;;6.35;2.78;;;;;;;-1.50;100.00;97945.53;5042474;28;20405;-60
2021/12/20 10:04:14;;;;;;;5.70;2.50;;;;;;;-1.45;100.00;97943.78;5028220;28;20397;-58
2021/12/20 10:07:01;;;;;;;;;;;;;;;-1.38;100.00;97953.28;5043962;28;20051;-56
2021/12/20 10:09:47;;;;;;;5.38;2.58;;;;;;;-1.55;100.00;97960.22;5043998;28;20701;-58
2021/12/20 10:12:33;;;;;;;4.43;2.28;;;;;;;-1.99;100.00;97969.78;5018755;28;20052;-56
2021/12/20 10:15:17;;;;;;;6.88;2.80;;;;;;;-2.02;100.00;97970.66;5044993;28;20052;-63
2021/12/20 10:18:01;;;;;;;7.03;3.53;;;;;;;-1.95;100.00;97975.00;5045220;28;20055;-63
2021/12/20 10:20:55;;;;;;;5.78;3.40;;;;;;;-1.94;100.00;97974.13;5044563;28;20111;-56
2021/12/20 10:23:46;;;;;;;5.82;2.92;;;;;;;-2.00;100.00;97978.44;5042230;28;20323;-59
2021/12/20 10:26:41;;;;;;;6.72;2.97;;;;;;;-1.87;100.00;97990.56;5044713;28;20056;-67
2021/12/20 10:29:27;;;;;;;6.32;3.50;;;;;;;-2.39;100.00;97989.66;5044488;28;20428;-57
2021/12/20 10:32:12;;;;;;;7.38;3.35;;;;;;;-2.16;100.00;97997.47;5040419;28;20571;-56
2021/12/20 10:34:56;;;;;;;7.28;3.10;;;;;;;-2.02;100.00;98000.97;5024396;28;20122;-57
2021/12/20 10:37:41;;;;;;;5.30;3.08;;;;;;;-2.20;100.00;97998.34;5036129;28;20048;-61
2021/12/20 10:40:27;;;;;;;6.35;3.00;;;;;;;-2.33;100.00;98004.38;5041720;28;20204;-67
2021/12/20 10:43:14;;;;;;;4.63;2.40;;;;;;;-2.27;100.00;98013.03;5012542;28;20456;-63
2021/12/20 10:46:08;;;;;;;5.65;2.58;;;;;;;-2.37;100.00;98015.63;5030441;28;20056;-64
2021/12/20 10:49:17;;;;;;;5.05;2.67;;;;;;;-2.29;100.00;98027.72;5014061;28;20060;-60
2021/12/20 10:52:02;;;;;;;6.43;2.55;;;;;;;-2.59;100.00;98022.47;5026079;28;20056;-55
2021/12/20 10:54:47;;;;;;;5.00;2.25;;;;;;;-2.98;100.00;98027.50;5053277;28;20197;-60
2021/12/20 10:57:32;;;;;;;4.28;2.75;;;;;;;-2.65;100.00;98040.59;5028215;28;20083;-67
2021/12/20 11:00:21;;;;;;;4.00;2.40;;;;;;;-2.71;100.00;98044.88;5056752;28;20605;-65
2021/12/20 11:09:05;;;;;;;4.80;2.38;;;;;;;-2.82;100.00;98049.16;5053797;28;20064;-60
2021/12/20 11:12:12;;;;;;;3.70;2.17;;;;;;;-2.59;100.00;98069.16;5027645;28;20198;-64
2021/12/20 11:15:00;;;;;;;4.18;2.13;;;;;;;-2.82;100.00;98060.41;5039603;28;20156;-68
2021/12/20 11:17:46;;;;;;;3.85;2.38;;;;;;;-2.85;100.00;98062.13;5027295;28;20110;-54
2021/12/20 11:20:31;;;;;;;4.85;2.33;;;;;;;-2.86;100.00;98058.66;5040722;28;20059;-67
2021/12/20 11:23:26;;;;;;;5.85;2.42;;;;;;;-3.05;100.00;98074.97;5013348;28;20052;-67
2021/12/20 11:26:10;;;;;;;4.57;2.43;;;;;;;-3.24;100.00;98075.69;5027960;28;20083;-66
2021/12/20 11:28:56;;;;;;;6.47;3.35;;;;;;;-3.57;100.00;98053.91;5041941;28;20486;-63
2021/12/20 11:31:42;;;;;;;4.22;2.20;;;;;;;-3.83;100.00;98081.28;5042792;28;20165;-62
2021/12/20 11:34:27;;;;;;;4.95;2.50;;;;;;;-3.89;100.00;98094.16;5029052;28;20791;-58
2021/12/20 11:37:18;;;;;;;6.13;2.45;;;;;;;-3.96;100.00;98094.97;5039448;28;20138;-64
2021/12/20 11:40:07;;;;;;;3.92;2.17;;;;;;;-3.53;100.00;98097.09;5046163;28;20136;-67
2021/12/20 11:42:52;;;;;;;4.15;2.33;;;;;;;-3.74;100.00;98089.13;5045596;28;20036;-56
2021/12/20 11:45:39;;;;;;;5.80;3.00;;;;;;;-3.56;100.00;98108.25;5036991;28;20052;-61
2021/12/20 11:48:27;;;;;;;5.75;2.50;;;;;;;-3.30;100.00;98105.88;5041310;28;20055;-58
2021/12/20 11:51:12;;;;;;;7.57;2.70;;;;;;;-3.35;100.00;98107.56;5047860;28;20056;-65
2021/12/20 11:53:56;;;;;;;5.90;3.33;;;;;;;-4.00;100.00;98094.06;5048825;28;20048;-65
2021/12/20 11:56:41;;;;;;;7.43;3.25;;;;;;;-3.64;100.00;98125.47;5050351;28;20457;-60
2021/12/20 11:59:47;;;;;;;7.18;3.45;;;;;;;-3.62;100.00;98130.66;5059748;28;20064;-56
2021/12/20 12:02:39;;;;;;;6.93;3.03;;;;;;;-3.99;100.00;98119.09;5028940;28;20051;-58
2021/12/20 12:05:46;;;;;;;3.33;1.80;;;;;;;-4.27;100.00;98139.47;5041378;28;20044;-58
2021/12/20 12:08:41;;;;;;;4.78;1.90;;;;;;;-4.61;100.00;98140.78;5049487;28;20457;-64
2021/12/20 12:11:34;;;;;;;4.07;1.83;;;;;;;-4.32;100.00;98146.31;5059474;28;20527;-65
2021/12/20 12:14:31;;;;;;;3.88;1.92;;;;;;;-4.33;100.00;98154.91;5032250;28;20126;-59
2021/12/20 12:17:16;;;;;;;5.72;2.10;;;;;;;-4.51;100.00;98165.88;5046322;28;20064;-59
2021/12/20 12:20:01;;;;;;;4.05;1.40;;;;;;;-4.64;100.00;98168.31;5053103;28;20140;-56
2021/12/20 12:22:47;;;;;;;2.97;1.40;;;;;;;-4.45;100.00;98171.16;5046481;28;20052;-52
2021/12/20 12:25:40;;;;;;;3.00;1.23;;;;;;;-4.38;100.00;98170.38;5047823;28;20147;-57
2021/12/20 12:28:47;;;;;;;3.58;1.55;;;;;;;-4.40;100.00;98181.56;5048081;28;20123;-56
2021/12/20 12:32:01;;;;;;;2.38;1.30;;;;;;;-4.33;100.00;98185.94;5049192;28;20068;-59
2021/12/20 12:34:47;;;;;;;3.75;1.63;;;;;;;-4.51;100.00;98199.50;5049862;28;20044;-57
2021/12/20 12:37:37;;;;;;;;;;;;;;;-4.36;100.00;98196.28;5049520;28;20051;-57
2021/12/20 12:40:22;;;;;;;4.97;1.92;;;;;;;-4.52;100.00;98196.91;5012174;28;19928;-54
2021/12/20 12:43:07;;;;;;;4.28;1.70;;;;;;;-4.39;100.00;98199.69;5028457;28;20056;-59
2021/12/20 12:45:55;;;;;;;3.15;1.55;;;;;;;-4.46;100.00;98210.78;5044594;28;20044;-59
2021/12/20 12:48:43;;;;;;;3.60;1.67;;;;;;;-4.38;100.00;98216.06;5048790;28;20056;-56
2021/12/20 12:51:28;;;;;;;2.83;1.50;;;;;;;-4.50;100.00;98218.47;5059232;28;20091;-61
2021/12/20 12:54:33;;;;;;;2.72;1.70;;;;;;;-4.31;100.00;98223.06;5044305;28;20567;-64
2021/12/20 12:57:17;;;;;;;4.40;1.50;;;;;;;-4.75;100.00;98221.56;5043467;28;20048;-55
2021/12/20 13:00:20;;;;;;;4.53;2.05;;;;;;;-4.63;100.00;98232.09;5041651;28;20458;-55
2021/12/20 13:03:13;;;;;;;3.05;1.40;;;;;;;-4.70;100.00;98241.47;5031021;28;20454;-58
2021/12/20 13:05:58;;;;;;;3.33;1.40;;;;;;;-4.63;100.00;98239.84;5026317;28;20095;-68
2021/12/20 13:08:52;;;;;;;5.22;1.80;;;;;;;-4.64;100.00;98244.13;5029786;28;20503;-57
2021/12/20 13:11:37;;;;;;;3.20;1.70;;;;;;;-4.68;100.00;98247.53;5033531;28;20102;-60
2021/12/20 13:14:21;;;;;;;5.95;2.10;;;;;;;-4.75;100.00;98237.94;5044863;28;20052;-60
2021/12/20 13:17:06;;;;;;;5.25;2.20;;;;;;;-4.74;100.00;98260.38;5046095;28;20452;-63